sensor_id;sensor_type;location;lat;lon;timestamp;P1;durP1;ratioP1;P2;durP2;ratioP2
27225;SDS011;14732;51.074;3.788;2023-03-14T00:00:58;5.72;;;0.98;;
27225;SDS011;14732;51.074;3.788;2023-03-14T00:03:24;8.07;;;1.20;;
27225;SDS011;14732;51.074;3.788;2023-03-14T00:05:50;9.35;;;1.33;;
27225;SDS011;14732;51.074;3.788;2023-03-14T00:08:16;4.72;;;1.02;;
27225;SDS011;14732;51.074;3.788;2023-03-14T00:10:42;6.20;;;0.98;;
27225;SDS011;14732;51.074;3.788;2023-03-14T00:13:08;5.40;;;0.93;;
27225;SDS011;14732;51.074;3.788;2023-03-14T00:15:34;5.47;;;1.20;;
27225;SDS011;14732;51.074;3.788;2023-03-14T00:18:00;4.72;;;1.02;;
27225;SDS011;14732;51.074;3.788;2023-03-14T00:20:26;5.72;;;1.10;;
27225;SDS011;14732;51.074;3.788;2023-03-14T00:22:52;6.38;;;1.15;;
27225;SDS011;14732;51.074;3.788;2023-03-14T00:25:18;8.00;;;0.90;;
27225;SDS011;14732;51.074;3.788;2023-03-14T00:27:44;6.70;;;1.30;;
27225;SDS011;14732;51.074;3.788;2023-03-14T00:30:10;7.78;;;1.00;;
27225;SDS011;14732;51.074;3.788;2023-03-14T00:32:36;6.00;;;1.00;;
27225;SDS011;14732;51.074;3.788;2023-03-14T00:35:03;11.43;;;1.50;;
27225;SDS011;14732;51.074;3.788;2023-03-14T00:37:30;7.27;;;1.20;;
27225;SDS011;14732;51.074;3.788;2023-03-14T00:39:57;6.05;;;1.20;;
27225;SDS011;14732;51.074;3.788;2023-03-14T00:42:23;7.57;;;1.30;;
27225;SDS011;14732;51.074;3.788;2023-03-14T00:44:49;9.20;;;1.25;;
27225;SDS011;14732;51.074;3.788;2023-03-14T00:47:14;8.63;;;1.20;;
27225;SDS011;14732;51.074;3.788;2023-03-14T00:49:40;11.30;;;1.55;;
27225;SDS011;14732;51.074;3.788;2023-03-14T00:52:08;11.00;;;1.67;;
27225;SDS011;14732;51.074;3.788;2023-03-14T00:54:34;9.50;;;1.58;;
27225;SDS011;14732;51.074;3.788;2023-03-14T00:57:00;6.70;;;1.30;;
27225;SDS011;14732;51.074;3.788;2023-03-14T00:59:26;9.52;;;1.60;;
27225;SDS011;14732;51.074;3.788;2023-03-14T01:01:52;6.68;;;1.45;;
27225;SDS011;14732;51.074;3.788;2023-03-14T01:04:19;7.90;;;1.73;;
27225;SDS011;14732;51.074;3.788;2023-03-14T01:06:48;10.88;;;2.17;;
27225;SDS011;14732;51.074;3.788;2023-03-14T01:09:15;11.25;;;1.65;;
27225;SDS011;14732;51.074;3.788;2023-03-14T01:11:43;13.77;;;1.83;;
27225;SDS011;14732;51.074;3.788;2023-03-14T01:14:11;11.95;;;1.70;;
27225;SDS011;14732;51.074;3.788;2023-03-14T01:16:37;12.23;;;1.70;;
27225;SDS011;14732;51.074;3.788;2023-03-14T01:19:03;9.65;;;1.50;;
27225;SDS011;14732;51.074;3.788;2023-03-14T01:21:33;10.80;;;1.90;;
27225;SDS011;14732;51.074;3.788;2023-03-14T01:24:00;9.90;;;1.60;;
27225;SDS011;14732;51.074;3.788;2023-03-14T01:26:29;8.15;;;1.45;;
27225;SDS011;14732;51.074;3.788;2023-03-14T01:28:57;10.07;;;2.00;;
27225;SDS011;14732;51.074;3.788;2023-03-14T01:31:23;9.90;;;1.60;;
27225;SDS011;14732;51.074;3.788;2023-03-14T01:33:49;10.25;;;1.35;;
27225;SDS011;14732;51.074;3.788;2023-03-14T01:36:15;9.10;;;1.40;;
27225;SDS011;14732;51.074;3.788;2023-03-14T01:38:41;8.65;;;1.50;;
27225;SDS011;14732;51.074;3.788;2023-03-14T01:41:09;9.10;;;1.75;;
27225;SDS011;14732;51.074;3.788;2023-03-14T01:43:44;13.20;;;2.28;;
27225;SDS011;14732;51.074;3.788;2023-03-14T01:49:00;8.05;;;1.58;;
27225;SDS011;14732;51.074;3.788;2023-03-14T01:54:35;7.40;;;1.40;;
27225;SDS011;14732;51.074;3.788;2023-03-14T01:59:33;8.05;;;1.33;;
27225;SDS011;14732;51.074;3.788;2023-03-14T02:02:04;5.53;;;1.42;;
27225;SDS011;14732;51.074;3.788;2023-03-14T02:04:35;11.95;;;1.58;;
27225;SDS011;14732;51.074;3.788;2023-03-14T02:07:10;8.25;;;1.30;;
27225;SDS011;14732;51.074;3.788;2023-03-14T02:09:38;10.95;;;1.45;;
27225;SDS011;14732;51.074;3.788;2023-03-14T02:12:08;9.30;;;1.15;;
27225;SDS011;14732;51.074;3.788;2023-03-14T02:14:37;8.85;;;1.20;;
27225;SDS011;14732;51.074;3.788;2023-03-14T02:17:13;4.38;;;0.80;;
27225;SDS011;14732;51.074;3.788;2023-03-14T02:19:50;5.28;;;1.05;;
27225;SDS011;14732;51.074;3.788;2023-03-14T02:22:38;6.65;;;1.27;;
27225;SDS011;14732;51.074;3.788;2023-03-14T02:28:09;4.68;;;0.77;;
27225;SDS011;14732;51.074;3.788;2023-03-14T02:30:36;6.28;;;0.88;;
27225;SDS011;14732;51.074;3.788;2023-03-14T02:33:06;5.22;;;0.80;;
27225;SDS011;14732;51.074;3.788;2023-03-14T02:35:37;3.10;;;0.82;;
27225;SDS011;14732;51.074;3.788;2023-03-14T02:40:47;3.17;;;0.85;;
27225;SDS011;14732;51.074;3.788;2023-03-14T02:43:13;2.92;;;0.60;;
27225;SDS011;14732;51.074;3.788;2023-03-14T02:45:40;4.55;;;0.68;;
27225;SDS011;14732;51.074;3.788;2023-03-14T02:48:10;9.05;;;1.33;;
27225;SDS011;14732;51.074;3.788;2023-03-14T02:50:47;6.78;;;0.80;;
27225;SDS011;14732;51.074;3.788;2023-03-14T02:53:17;5.95;;;0.85;;
27225;SDS011;14732;51.074;3.788;2023-03-14T02:55:48;3.78;;;0.82;;
27225;SDS011;14732;51.074;3.788;2023-03-14T02:58:15;6.82;;;0.90;;
27225;SDS011;14732;51.074;3.788;2023-03-14T03:03:10;6.85;;;0.90;;
27225;SDS011;14732;51.074;3.788;2023-03-14T03:05:36;5.57;;;1.10;;
27225;SDS011;14732;51.074;3.788;2023-03-14T03:08:02;5.97;;;0.90;;
27225;SDS011;14732;51.074;3.788;2023-03-14T03:10:28;4.57;;;1.08;;
27225;SDS011;14732;51.074;3.788;2023-03-14T03:12:55;9.38;;;1.40;;
27225;SDS011;14732;51.074;3.788;2023-03-14T03:15:20;7.85;;;1.00;;
27225;SDS011;14732;51.074;3.788;2023-03-14T03:17:46;5.43;;;1.00;;
27225;SDS011;14732;51.074;3.788;2023-03-14T03:20:12;8.90;;;1.10;;
27225;SDS011;14732;51.074;3.788;2023-03-14T03:22:38;8.85;;;0.95;;
27225;SDS011;14732;51.074;3.788;2023-03-14T03:25:05;4.47;;;0.95;;
27225;SDS011;14732;51.074;3.788;2023-03-14T03:27:33;6.22;;;1.35;;
27225;SDS011;14732;51.074;3.788;2023-03-14T03:30:00;4.80;;;1.13;;
27225;SDS011;14732;51.074;3.788;2023-03-14T03:32:26;7.88;;;1.50;;
27225;SDS011;14732;51.074;3.788;2023-03-14T03:34:51;6.35;;;1.20;;
27225;SDS011;14732;51.074;3.788;2023-03-14T03:37:17;5.82;;;1.48;;
27225;SDS011;14732;51.074;3.788;2023-03-14T03:39:43;5.20;;;1.50;;
27225;SDS011;14732;51.074;3.788;2023-03-14T03:42:09;7.60;;;1.70;;
27225;SDS011;14732;51.074;3.788;2023-03-14T03:44:35;6.93;;;1.60;;
27225;SDS011;14732;51.074;3.788;2023-03-14T03:47:01;8.38;;;1.70;;
27225;SDS011;14732;51.074;3.788;2023-03-14T03:49:30;6.97;;;1.48;;
27225;SDS011;14732;51.074;3.788;2023-03-14T03:51:57;6.90;;;1.38;;
27225;SDS011;14732;51.074;3.788;2023-03-14T03:54:23;7.47;;;1.88;;
27225;SDS011;14732;51.074;3.788;2023-03-14T03:56:49;7.10;;;1.77;;
27225;SDS011;14732;51.074;3.788;2023-03-14T03:59:16;6.85;;;1.83;;
27225;SDS011;14732;51.074;3.788;2023-03-14T04:01:44;7.13;;;2.20;;
27225;SDS011;14732;51.074;3.788;2023-03-14T04:04:12;7.32;;;2.22;;
27225;SDS011;14732;51.074;3.788;2023-03-14T04:06:39;9.98;;;2.30;;
27225;SDS011;14732;51.074;3.788;2023-03-14T04:09:07;6.55;;;2.22;;
27225;SDS011;14732;51.074;3.788;2023-03-14T04:11:33;7.97;;;2.25;;
27225;SDS011;14732;51.074;3.788;2023-03-14T04:14:02;7.15;;;2.55;;
27225;SDS011;14732;51.074;3.788;2023-03-14T04:16:30;8.30;;;2.83;;
27225;SDS011;14732;51.074;3.788;2023-03-14T04:18:56;10.75;;;2.88;;
27225;SDS011;14732;51.074;3.788;2023-03-14T04:21:23;8.77;;;2.80;;
27225;SDS011;14732;51.074;3.788;2023-03-14T04:23:49;9.05;;;3.33;;
27225;SDS011;14732;51.074;3.788;2023-03-14T04:26:14;8.50;;;3.20;;
27225;SDS011;14732;51.074;3.788;2023-03-14T04:28:40;8.75;;;3.42;;
27225;SDS011;14732;51.074;3.788;2023-03-14T04:31:10;10.45;;;3.40;;
27225;SDS011;14732;51.074;3.788;2023-03-14T04:33:38;8.85;;;3.90;;
27225;SDS011;14732;51.074;3.788;2023-03-14T04:36:07;9.70;;;4.60;;
27225;SDS011;14732;51.074;3.788;2023-03-14T04:38:33;11.57;;;3.72;;
27225;SDS011;14732;51.074;3.788;2023-03-14T04:40:59;8.82;;;3.75;;
27225;SDS011;14732;51.074;3.788;2023-03-14T04:43:26;9.68;;;3.83;;
27225;SDS011;14732;51.074;3.788;2023-03-14T04:45:55;7.63;;;4.03;;
27225;SDS011;14732;51.074;3.788;2023-03-14T04:48:22;8.95;;;3.72;;
27225;SDS011;14732;51.074;3.788;2023-03-14T04:50:49;9.68;;;3.70;;
27225;SDS011;14732;51.074;3.788;2023-03-14T04:53:15;5.55;;;3.40;;
27225;SDS011;14732;51.074;3.788;2023-03-14T04:55:41;8.38;;;3.22;;
27225;SDS011;14732;51.074;3.788;2023-03-14T04:58:07;5.43;;;2.80;;
27225;SDS011;14732;51.074;3.788;2023-03-14T05:00:33;7.25;;;1.92;;
27225;SDS011;14732;51.074;3.788;2023-03-14T05:02:59;8.27;;;2.10;;
27225;SDS011;14732;51.074;3.788;2023-03-14T05:05:25;6.28;;;2.00;;
27225;SDS011;14732;51.074;3.788;2023-03-14T05:07:54;4.37;;;1.63;;
27225;SDS011;14732;51.074;3.788;2023-03-14T05:10:20;5.18;;;1.75;;
27225;SDS011;14732;51.074;3.788;2023-03-14T05:12:50;3.40;;;1.30;;
27225;SDS011;14732;51.074;3.788;2023-03-14T05:15:16;3.78;;;1.40;;
27225;SDS011;14732;51.074;3.788;2023-03-14T05:17:42;1.98;;;0.80;;
27225;SDS011;14732;51.074;3.788;2023-03-14T05:20:08;1.75;;;0.80;;
27225;SDS011;14732;51.074;3.788;2023-03-14T05:22:37;4.22;;;0.93;;
27225;SDS011;14732;51.074;3.788;2023-03-14T05:25:05;2.63;;;0.90;;
27225;SDS011;14732;51.074;3.788;2023-03-14T05:27:32;3.38;;;0.98;;
27225;SDS011;14732;51.074;3.788;2023-03-14T05:29:59;4.63;;;0.82;;
27225;SDS011;14732;51.074;3.788;2023-03-14T05:32:36;3.70;;;0.93;;
27225;SDS011;14732;51.074;3.788;2023-03-14T05:35:16;3.42;;;1.15;;
27225;SDS011;14732;51.074;3.788;2023-03-14T05:37:44;3.63;;;1.20;;
27225;SDS011;14732;51.074;3.788;2023-03-14T05:40:10;5.82;;;1.30;;
27225;SDS011;14732;51.074;3.788;2023-03-14T05:42:39;2.85;;;1.20;;
27225;SDS011;14732;51.074;3.788;2023-03-14T05:45:05;2.70;;;1.27;;
27225;SDS011;14732;51.074;3.788;2023-03-14T05:47:38;5.38;;;2.00;;
27225;SDS011;14732;51.074;3.788;2023-03-14T05:50:05;7.25;;;2.20;;
27225;SDS011;14732;51.074;3.788;2023-03-14T05:52:32;6.03;;;2.10;;
27225;SDS011;14732;51.074;3.788;2023-03-14T05:57:28;3.75;;;2.15;;
27225;SDS011;14732;51.074;3.788;2023-03-14T05:59:56;6.47;;;1.73;;
27225;SDS011;14732;51.074;3.788;2023-03-14T06:02:21;4.63;;;2.17;;
27225;SDS011;14732;51.074;3.788;2023-03-14T06:04:47;7.70;;;2.45;;
27225;SDS011;14732;51.074;3.788;2023-03-14T06:07:13;4.63;;;1.92;;
27225;SDS011;14732;51.074;3.788;2023-03-14T06:09:38;4.72;;;1.98;;
27225;SDS011;14732;51.074;3.788;2023-03-14T06:12:04;5.38;;;2.30;;
27225;SDS011;14732;51.074;3.788;2023-03-14T06:14:31;5.80;;;2.00;;
27225;SDS011;14732;51.074;3.788;2023-03-14T06:16:56;3.35;;;1.33;;
27225;SDS011;14732;51.074;3.788;2023-03-14T06:19:24;2.33;;;1.60;;
27225;SDS011;14732;51.074;3.788;2023-03-14T06:21:50;4.40;;;1.50;;
27225;SDS011;14732;51.074;3.788;2023-03-14T06:24:16;2.83;;;1.17;;
27225;SDS011;14732;51.074;3.788;2023-03-14T06:26:42;3.35;;;1.85;;
27225;SDS011;14732;51.074;3.788;2023-03-14T06:29:08;7.82;;;1.70;;
27225;SDS011;14732;51.074;3.788;2023-03-14T06:31:34;5.60;;;1.60;;
27225;SDS011;14732;51.074;3.788;2023-03-14T06:34:00;9.68;;;2.25;;
27225;SDS011;14732;51.074;3.788;2023-03-14T06:36:26;10.82;;;2.05;;
27225;SDS011;14732;51.074;3.788;2023-03-14T06:38:51;6.85;;;2.00;;
27225;SDS011;14732;51.074;3.788;2023-03-14T06:41:19;6.13;;;2.05;;
27225;SDS011;14732;51.074;3.788;2023-03-14T06:43:51;12.43;;;2.60;;
27225;SDS011;14732;51.074;3.788;2023-03-14T06:46:22;10.52;;;2.83;;
27225;SDS011;14732;51.074;3.788;2023-03-14T06:48:48;6.40;;;2.72;;
27225;SDS011;14732;51.074;3.788;2023-03-14T06:51:14;7.38;;;3.40;;
27225;SDS011;14732;51.074;3.788;2023-03-14T06:53:42;8.20;;;2.90;;
27225;SDS011;14732;51.074;3.788;2023-03-14T06:56:08;8.60;;;2.92;;
27225;SDS011;14732;51.074;3.788;2023-03-14T06:58:35;5.88;;;2.65;;
27225;SDS011;14732;51.074;3.788;2023-03-14T07:01:03;6.75;;;2.70;;
27225;SDS011;14732;51.074;3.788;2023-03-14T07:03:29;7.95;;;2.88;;
27225;SDS011;14732;51.074;3.788;2023-03-14T07:05:55;5.60;;;2.47;;
27225;SDS011;14732;51.074;3.788;2023-03-14T07:08:21;9.38;;;3.20;;
27225;SDS011;14732;51.074;3.788;2023-03-14T07:10:46;8.50;;;3.10;;
27225;SDS011;14732;51.074;3.788;2023-03-14T07:13:12;5.82;;;3.15;;
27225;SDS011;14732;51.074;3.788;2023-03-14T07:15:38;7.78;;;3.40;;
27225;SDS011;14732;51.074;3.788;2023-03-14T07:18:04;11.43;;;3.83;;
27225;SDS011;14732;51.074;3.788;2023-03-14T07:20:30;8.07;;;3.05;;
27225;SDS011;14732;51.074;3.788;2023-03-14T07:22:57;5.05;;;3.60;;
27225;SDS011;14732;51.074;3.788;2023-03-14T07:25:25;8.48;;;3.20;;
27225;SDS011;14732;51.074;3.788;2023-03-14T07:27:52;6.57;;;3.13;;
27225;SDS011;14732;51.074;3.788;2023-03-14T07:30:20;8.52;;;3.40;;
27225;SDS011;14732;51.074;3.788;2023-03-14T07:32:47;11.82;;;3.08;;
27225;SDS011;14732;51.074;3.788;2023-03-14T07:35:14;6.45;;;3.35;;
27225;SDS011;14732;51.074;3.788;2023-03-14T07:37:42;6.18;;;2.97;;
27225;SDS011;14732;51.074;3.788;2023-03-14T07:40:10;7.63;;;3.45;;
27225;SDS011;14732;51.074;3.788;2023-03-14T07:42:41;6.13;;;3.20;;
27225;SDS011;14732;51.074;3.788;2023-03-14T07:45:09;10.95;;;3.15;;
27225;SDS011;14732;51.074;3.788;2023-03-14T07:47:36;6.47;;;3.00;;
27225;SDS011;14732;51.074;3.788;2023-03-14T07:50:02;4.43;;;2.67;;
27225;SDS011;14732;51.074;3.788;2023-03-14T07:52:29;6.82;;;2.95;;
27225;SDS011;14732;51.074;3.788;2023-03-14T07:54:55;7.97;;;3.42;;
27225;SDS011;14732;51.074;3.788;2023-03-14T07:57:21;7.22;;;3.03;;
27225;SDS011;14732;51.074;3.788;2023-03-14T07:59:47;5.85;;;2.88;;
27225;SDS011;14732;51.074;3.788;2023-03-14T08:02:12;5.03;;;3.00;;
27225;SDS011;14732;51.074;3.788;2023-03-14T08:04:38;5.38;;;3.08;;
27225;SDS011;14732;51.074;3.788;2023-03-14T08:07:05;7.90;;;2.78;;
27225;SDS011;14732;51.074;3.788;2023-03-14T08:09:31;5.25;;;2.38;;
27225;SDS011;14732;51.074;3.788;2023-03-14T08:11:57;8.50;;;2.47;;
27225;SDS011;14732;51.074;3.788;2023-03-14T08:14:22;9.18;;;3.05;;
27225;SDS011;14732;51.074;3.788;2023-03-14T08:16:52;6.53;;;2.73;;
27225;SDS011;14732;51.074;3.788;2023-03-14T08:19:20;5.90;;;3.05;;
27225;SDS011;14732;51.074;3.788;2023-03-14T08:21:48;7.10;;;3.13;;
27225;SDS011;14732;51.074;3.788;2023-03-14T08:24:14;6.53;;;2.78;;
27225;SDS011;14732;51.074;3.788;2023-03-14T08:26:40;7.20;;;2.88;;
27225;SDS011;14732;51.074;3.788;2023-03-14T08:29:05;6.63;;;3.08;;
27225;SDS011;14732;51.074;3.788;2023-03-14T08:31:33;6.63;;;4.10;;
27225;SDS011;14732;51.074;3.788;2023-03-14T08:34:02;5.38;;;2.63;;
27225;SDS011;14732;51.074;3.788;2023-03-14T08:36:28;7.15;;;3.45;;
27225;SDS011;14732;51.074;3.788;2023-03-14T08:38:54;8.10;;;3.78;;
27225;SDS011;14732;51.074;3.788;2023-03-14T08:41:20;9.05;;;3.33;;
27225;SDS011;14732;51.074;3.788;2023-03-14T08:43:49;8.07;;;3.25;;
27225;SDS011;14732;51.074;3.788;2023-03-14T08:46:17;8.35;;;3.17;;
27225;SDS011;14732;51.074;3.788;2023-03-14T08:48:46;10.52;;;3.53;;
27225;SDS011;14732;51.074;3.788;2023-03-14T08:51:13;6.88;;;3.72;;
27225;SDS011;14732;51.074;3.788;2023-03-14T08:56:38;3.00;;;2.40;;
27225;SDS011;14732;51.074;3.788;2023-03-14T08:59:05;5.32;;;2.35;;
27225;SDS011;14732;51.074;3.788;2023-03-14T09:01:31;5.65;;;2.70;;
27225;SDS011;14732;51.074;3.788;2023-03-14T09:03:57;3.42;;;2.30;;
27225;SDS011;14732;51.074;3.788;2023-03-14T09:06:23;6.05;;;2.60;;
27225;SDS011;14732;51.074;3.788;2023-03-14T09:08:49;4.60;;;2.60;;
27225;SDS011;14732;51.074;3.788;2023-03-14T09:11:17;6.07;;;2.60;;
27225;SDS011;14732;51.074;3.788;2023-03-14T09:13:43;7.53;;;2.80;;
27225;SDS011;14732;51.074;3.788;2023-03-14T09:16:09;7.57;;;2.17;;
27225;SDS011;14732;51.074;3.788;2023-03-14T09:18:35;11.27;;;2.22;;
27225;SDS011;14732;51.074;3.788;2023-03-14T09:21:01;10.52;;;2.15;;
27225;SDS011;14732;51.074;3.788;2023-03-14T09:23:27;12.20;;;2.88;;
27225;SDS011;14732;51.074;3.788;2023-03-14T09:25:56;8.30;;;2.47;;
27225;SDS011;14732;51.074;3.788;2023-03-14T09:28:23;8.82;;;2.05;;
27225;SDS011;14732;51.074;3.788;2023-03-14T09:30:49;9.57;;;2.35;;
27225;SDS011;14732;51.074;3.788;2023-03-14T09:33:15;12.18;;;2.20;;
27225;SDS011;14732;51.074;3.788;2023-03-14T09:35:41;8.30;;;2.35;;
27225;SDS011;14732;51.074;3.788;2023-03-14T09:38:07;11.30;;;2.38;;
27225;SDS011;14732;51.074;3.788;2023-03-14T09:40:34;11.02;;;2.15;;
27225;SDS011;14732;51.074;3.788;2023-03-14T09:43:01;7.57;;;1.90;;
27225;SDS011;14732;51.074;3.788;2023-03-14T09:47:56;7.05;;;1.90;;
27225;SDS011;14732;51.074;3.788;2023-03-14T09:50:26;5.95;;;1.70;;
27225;SDS011;14732;51.074;3.788;2023-03-14T09:52:59;7.72;;;1.67;;
27225;SDS011;14732;51.074;3.788;2023-03-14T09:55:30;5.43;;;1.33;;
27225;SDS011;14732;51.074;3.788;2023-03-14T09:58:00;5.43;;;1.45;;
27225;SDS011;14732;51.074;3.788;2023-03-14T10:00:29;5.57;;;1.20;;
27225;SDS011;14732;51.074;3.788;2023-03-14T10:02:57;5.65;;;1.17;;
27225;SDS011;14732;51.074;3.788;2023-03-14T10:05:38;3.00;;;0.95;;
27225;SDS011;14732;51.074;3.788;2023-03-14T10:08:11;2.85;;;1.00;;
27225;SDS011;14732;51.074;3.788;2023-03-14T10:10:39;5.13;;;1.10;;
27225;SDS011;14732;51.074;3.788;2023-03-14T10:15:47;5.55;;;1.00;;
27225;SDS011;14732;51.074;3.788;2023-03-14T10:18:18;5.35;;;0.95;;
27225;SDS011;14732;51.074;3.788;2023-03-14T10:20:49;4.55;;;0.90;;
27225;SDS011;14732;51.074;3.788;2023-03-14T10:23:28;4.13;;;0.90;;
27225;SDS011;14732;51.074;3.788;2023-03-14T10:26:03;3.05;;;0.88;;
27225;SDS011;14732;51.074;3.788;2023-03-14T10:28:44;2.30;;;0.90;;
27225;SDS011;14732;51.074;3.788;2023-03-14T10:31:13;4.57;;;0.85;;
27225;SDS011;14732;51.074;3.788;2023-03-14T10:33:39;4.47;;;0.90;;
27225;SDS011;14732;51.074;3.788;2023-03-14T10:36:17;5.82;;;1.10;;
27225;SDS011;14732;51.074;3.788;2023-03-14T10:38:45;5.25;;;1.00;;
27225;SDS011;14732;51.074;3.788;2023-03-14T10:41:33;5.32;;;1.10;;
27225;SDS011;14732;51.074;3.788;2023-03-14T10:44:00;4.25;;;1.20;;
27225;SDS011;14732;51.074;3.788;2023-03-14T10:46:30;4.38;;;1.05;;
27225;SDS011;14732;51.074;3.788;2023-03-14T10:49:00;5.50;;;1.25;;
27225;SDS011;14732;51.074;3.788;2023-03-14T10:51:32;8.85;;;1.10;;
27225;SDS011;14732;51.074;3.788;2023-03-14T10:56:44;3.95;;;1.73;;
27225;SDS011;14732;51.074;3.788;2023-03-14T10:59:21;6.90;;;1.33;;
27225;SDS011;14732;51.074;3.788;2023-03-14T11:01:51;5.57;;;1.50;;
27225;SDS011;14732;51.074;3.788;2023-03-14T11:07:31;7.32;;;1.90;;
27225;SDS011;14732;51.074;3.788;2023-03-14T11:10:24;6.85;;;1.30;;
27225;SDS011;14732;51.074;3.788;2023-03-14T11:15:35;5.35;;;1.20;;
27225;SDS011;14732;51.074;3.788;2023-03-14T11:26:30;10.45;;;1.80;;
27225;SDS011;14732;51.074;3.788;2023-03-14T11:31:46;6.53;;;1.60;;
27225;SDS011;14732;51.074;3.788;2023-03-14T11:34:24;9.13;;;1.40;;
27225;SDS011;14732;51.074;3.788;2023-03-14T11:39:40;13.82;;;6.95;;
27225;SDS011;14732;51.074;3.788;2023-03-14T11:42:14;20.63;;;2.80;;
27225;SDS011;14732;51.074;3.788;2023-03-14T11:44:43;16.05;;;1.98;;
27225;SDS011;14732;51.074;3.788;2023-03-14T11:52:44;12.27;;;2.10;;
27225;SDS011;14732;51.074;3.788;2023-03-14T11:55:35;14.10;;;2.33;;
27225;SDS011;14732;51.074;3.788;2023-03-14T11:58:19;13.65;;;2.10;;
27225;SDS011;14732;51.074;3.788;2023-03-14T12:00:53;18.15;;;2.20;;
27225;SDS011;14732;51.074;3.788;2023-03-14T12:03:39;16.77;;;2.15;;
27225;SDS011;14732;51.074;3.788;2023-03-14T12:09:11;14.35;;;1.92;;
27225;SDS011;14732;51.074;3.788;2023-03-14T12:11:57;14.43;;;2.40;;
27225;SDS011;14732;51.074;3.788;2023-03-14T12:14:30;11.07;;;1.88;;
27225;SDS011;14732;51.074;3.788;2023-03-14T12:25:37;26.10;;;4.07;;
27225;SDS011;14732;51.074;3.788;2023-03-14T12:28:04;18.63;;;3.90;;
27225;SDS011;14732;51.074;3.788;2023-03-14T12:30:44;20.38;;;3.38;;
27225;SDS011;14732;51.074;3.788;2023-03-14T12:35:36;17.23;;;3.13;;
27225;SDS011;14732;51.074;3.788;2023-03-14T12:38:14;41.67;;;11.48;;
27225;SDS011;14732;51.074;3.788;2023-03-14T12:43:31;15.73;;;2.45;;
27225;SDS011;14732;51.074;3.788;2023-03-14T12:48:48;21.58;;;4.13;;
27225;SDS011;14732;51.074;3.788;2023-03-14T12:54:10;15.82;;;2.40;;
27225;SDS011;14732;51.074;3.788;2023-03-14T12:59:51;16.98;;;2.05;;
27225;SDS011;14732;51.074;3.788;2023-03-14T13:02:28;16.02;;;1.75;;
27225;SDS011;14732;51.074;3.788;2023-03-14T13:17:54;20.20;;;5.38;;
27225;SDS011;14732;51.074;3.788;2023-03-14T13:20:34;15.32;;;2.20;;
27225;SDS011;14732;51.074;3.788;2023-03-14T13:23:04;18.58;;;2.05;;
27225;SDS011;14732;51.074;3.788;2023-03-14T13:25:32;14.63;;;1.70;;
27225;SDS011;14732;51.074;3.788;2023-03-14T13:28:01;20.67;;;2.70;;
27225;SDS011;14732;51.074;3.788;2023-03-14T13:30:39;18.73;;;3.77;;
27225;SDS011;14732;51.074;3.788;2023-03-14T13:33:16;13.55;;;2.28;;
27225;SDS011;14732;51.074;3.788;2023-03-14T13:35:47;11.85;;;2.15;;
27225;SDS011;14732;51.074;3.788;2023-03-14T13:38:23;16.38;;;2.97;;
27225;SDS011;14732;51.074;3.788;2023-03-14T13:40:53;11.70;;;1.83;;
27225;SDS011;14732;51.074;3.788;2023-03-14T13:43:29;8.80;;;1.90;;
27225;SDS011;14732;51.074;3.788;2023-03-14T13:46:06;12.07;;;1.80;;
27225;SDS011;14732;51.074;3.788;2023-03-14T13:48:39;8.68;;;1.65;;
27225;SDS011;14732;51.074;3.788;2023-03-14T13:51:16;5.47;;;1.40;;
27225;SDS011;14732;51.074;3.788;2023-03-14T13:53:49;10.57;;;1.90;;
27225;SDS011;14732;51.074;3.788;2023-03-14T13:56:32;4.78;;;1.25;;
27225;SDS011;14732;51.074;3.788;2023-03-14T13:58:58;8.65;;;1.40;;
27225;SDS011;14732;51.074;3.788;2023-03-14T14:03:56;8.43;;;0.90;;
27225;SDS011;14732;51.074;3.788;2023-03-14T14:07:05;5.05;;;1.50;;
27225;SDS011;14732;51.074;3.788;2023-03-14T14:09:27;2.22;;;0.50;;
27225;SDS011;14732;51.074;3.788;2023-03-14T14:12:03;2.47;;;0.70;;
27225;SDS011;14732;51.074;3.788;2023-03-14T14:17:08;2.35;;;0.50;;
27225;SDS011;14732;51.074;3.788;2023-03-14T14:19:39;1.85;;;0.60;;
27225;SDS011;14732;51.074;3.788;2023-03-14T14:22:08;3.95;;;0.50;;
27225;SDS011;14732;51.074;3.788;2023-03-14T14:24:36;6.80;;;0.85;;
27225;SDS011;14732;51.074;3.788;2023-03-14T14:29:42;1.80;;;0.53;;
27225;SDS011;14732;51.074;3.788;2023-03-14T14:32:12;5.15;;;0.63;;
27225;SDS011;14732;51.074;3.788;2023-03-14T14:37:18;6.72;;;0.73;;
27225;SDS011;14732;51.074;3.788;2023-03-14T14:39:48;3.30;;;0.82;;
27225;SDS011;14732;51.074;3.788;2023-03-14T14:42:18;5.72;;;1.52;;
27225;SDS011;14732;51.074;3.788;2023-03-14T14:44:47;4.32;;;0.57;;
27225;SDS011;14732;51.074;3.788;2023-03-14T14:47:21;5.75;;;0.70;;
27225;SDS011;14732;51.074;3.788;2023-03-14T14:49:49;8.00;;;0.90;;
27225;SDS011;14732;51.074;3.788;2023-03-14T14:52:31;3.38;;;0.68;;
27225;SDS011;14732;51.074;3.788;2023-03-14T14:55:02;2.55;;;0.60;;
27225;SDS011;14732;51.074;3.788;2023-03-14T14:57:37;8.43;;;0.90;;
27225;SDS011;14732;51.074;3.788;2023-03-14T15:00:17;5.67;;;0.80;;
27225;SDS011;14732;51.074;3.788;2023-03-14T15:02:50;3.72;;;0.80;;
27225;SDS011;14732;51.074;3.788;2023-03-14T15:05:22;5.35;;;0.93;;
27225;SDS011;14732;51.074;3.788;2023-03-14T15:07:51;5.80;;;1.20;;
27225;SDS011;14732;51.074;3.788;2023-03-14T15:10:18;10.70;;;4.05;;
27225;SDS011;14732;51.074;3.788;2023-03-14T15:12:46;10.13;;;2.08;;
27225;SDS011;14732;51.074;3.788;2023-03-14T15:15:15;6.72;;;1.42;;
27225;SDS011;14732;51.074;3.788;2023-03-14T15:17:43;7.78;;;1.30;;
27225;SDS011;14732;51.074;3.788;2023-03-14T15:20:10;13.95;;;1.45;;
27225;SDS011;14732;51.074;3.788;2023-03-14T15:22:40;19.58;;;1.90;;
27225;SDS011;14732;51.074;3.788;2023-03-14T15:25:07;13.10;;;1.90;;
27225;SDS011;14732;51.074;3.788;2023-03-14T15:27:37;10.38;;;1.58;;
27225;SDS011;14732;51.074;3.788;2023-03-14T15:30:11;13.00;;;1.30;;
27225;SDS011;14732;51.074;3.788;2023-03-14T15:32:38;9.73;;;1.30;;
27225;SDS011;14732;51.074;3.788;2023-03-14T15:35:04;15.73;;;1.52;;
27225;SDS011;14732;51.074;3.788;2023-03-14T15:37:30;8.98;;;1.35;;
27225;SDS011;14732;51.074;3.788;2023-03-14T15:39:58;13.40;;;2.17;;
27225;SDS011;14732;51.074;3.788;2023-03-14T15:42:24;11.90;;;1.17;;
27225;SDS011;14732;51.074;3.788;2023-03-14T15:44:50;8.85;;;1.10;;
27225;SDS011;14732;51.074;3.788;2023-03-14T15:47:17;9.95;;;1.60;;
27225;SDS011;14732;51.074;3.788;2023-03-14T15:49:46;9.02;;;1.58;;
27225;SDS011;14732;51.074;3.788;2023-03-14T15:52:12;9.20;;;1.13;;
27225;SDS011;14732;51.074;3.788;2023-03-14T15:54:38;16.45;;;2.03;;
27225;SDS011;14732;51.074;3.788;2023-03-14T15:57:03;6.82;;;1.23;;
27225;SDS011;14732;51.074;3.788;2023-03-14T15:59:31;11.57;;;1.30;;
27225;SDS011;14732;51.074;3.788;2023-03-14T16:01:57;15.27;;;1.83;;
27225;SDS011;14732;51.074;3.788;2023-03-14T16:04:22;15.55;;;1.50;;
27225;SDS011;14732;51.074;3.788;2023-03-14T16:06:48;9.68;;;1.55;;
27225;SDS011;14732;51.074;3.788;2023-03-14T16:09:14;9.10;;;1.40;;
27225;SDS011;14732;51.074;3.788;2023-03-14T16:11:40;6.32;;;1.35;;
27225;SDS011;14732;51.074;3.788;2023-03-14T16:14:05;12.02;;;1.52;;
27225;SDS011;14732;51.074;3.788;2023-03-14T16:16:31;8.85;;;1.70;;
27225;SDS011;14732;51.074;3.788;2023-03-14T16:18:57;10.02;;;1.40;;
27225;SDS011;14732;51.074;3.788;2023-03-14T16:21:23;6.57;;;1.42;;
27225;SDS011;14732;51.074;3.788;2023-03-14T16:23:49;9.50;;;1.52;;
27225;SDS011;14732;51.074;3.788;2023-03-14T16:26:16;7.88;;;0.90;;
27225;SDS011;14732;51.074;3.788;2023-03-14T16:28:44;7.90;;;1.48;;
27225;SDS011;14732;51.074;3.788;2023-03-14T16:31:11;8.98;;;1.27;;
27225;SDS011;14732;51.074;3.788;2023-03-14T16:33:39;15.43;;;2.00;;
27225;SDS011;14732;51.074;3.788;2023-03-14T16:36:06;7.57;;;1.33;;
27225;SDS011;14732;51.074;3.788;2023-03-14T16:38:33;8.00;;;1.35;;